sensor_id;sensor_type;location;lat;lon;timestamp;pressure;altitude;pressure_sealevel;temperature;humidity
62617;BME280;62539;51.190;6.808;2023-03-14T00:01:57;98842.34;;;19.17;53.30
62617;BME280;62539;51.190;6.808;2023-03-14T00:04:23;98825.84;;;19.15;53.28
62617;BME280;62539;51.190;6.808;2023-03-14T00:06:49;98818.06;;;19.13;53.34
62617;BME280;62539;51.190;6.808;2023-03-14T00:09:15;98810.28;;;19.12;53.41
62617;BME280;62539;51.190;6.808;2023-03-14T00:11:41;98799.88;;;19.10;53.39
62617;BME280;62539;51.190;6.808;2023-03-14T00:14:07;98801.66;;;19.09;53.38
62617;BME280;62539;51.190;6.808;2023-03-14T00:16:32;98800.91;;;19.07;53.52
62617;BME280;62539;51.190;6.808;2023-03-14T00:18:58;98813.25;;;19.07;53.46
62617;BME280;62539;51.190;6.808;2023-03-14T00:21:24;98820.25;;;19.06;53.53
62617;BME280;62539;51.190;6.808;2023-03-14T00:23:51;98824.78;;;19.04;53.58
62617;BME280;62539;51.190;6.808;2023-03-14T00:26:18;98828.34;;;19.03;53.57
62617;BME280;62539;51.190;6.808;2023-03-14T00:28:46;98850.31;;;19.02;53.61
62617;BME280;62539;51.190;6.808;2023-03-14T00:31:15;98847.81;;;19.01;53.60
62617;BME280;62539;51.190;6.808;2023-03-14T00:33:43;98853.16;;;18.99;53.54
62617;BME280;62539;51.190;6.808;2023-03-14T00:36:12;98867.25;;;18.98;53.43
62617;BME280;62539;51.190;6.808;2023-03-14T00:38:40;98868.19;;;18.97;53.69
62617;BME280;62539;51.190;6.808;2023-03-14T00:41:09;98914.53;;;18.98;53.64
62617;BME280;62539;51.190;6.808;2023-03-14T00:43:38;98907.69;;;18.95;53.58
62617;BME280;62539;51.190;6.808;2023-03-14T00:46:04;98901.56;;;18.95;53.55
62617;BME280;62539;51.190;6.808;2023-03-14T00:48:30;98904.31;;;18.93;53.80
62617;BME280;62539;51.190;6.808;2023-03-14T00:50:56;98902.72;;;18.91;53.75
62617;BME280;62539;51.190;6.808;2023-03-14T00:53:21;98906.28;;;18.90;53.91
62617;BME280;62539;51.190;6.808;2023-03-14T00:55:48;98895.03;;;18.88;53.71
62617;BME280;62539;51.190;6.808;2023-03-14T00:58:15;98895.97;;;18.87;53.77
62617;BME280;62539;51.190;6.808;2023-03-14T01:00:42;98892.59;;;18.85;53.86
62617;BME280;62539;51.190;6.808;2023-03-14T01:03:09;98892.81;;;18.81;53.91
62617;BME280;62539;51.190;6.808;2023-03-14T01:05:35;98881.56;;;18.79;53.91
62617;BME280;62539;51.190;6.808;2023-03-14T01:08:01;98876.41;;;18.78;54.03
62617;BME280;62539;51.190;6.808;2023-03-14T01:10:27;98872.19;;;18.75;53.98
62617;BME280;62539;51.190;6.808;2023-03-14T01:12:53;98864.50;;;18.72;54.14
62617;BME280;62539;51.190;6.808;2023-03-14T01:15:19;98876.91;;;18.70;54.08
62617;BME280;62539;51.190;6.808;2023-03-14T01:17:45;98874.47;;;18.67;54.47
62617;BME280;62539;51.190;6.808;2023-03-14T01:20:13;98874.59;;;18.65;54.28
62617;BME280;62539;51.190;6.808;2023-03-14T01:22:41;98878.25;;;18.63;54.36
62617;BME280;62539;51.190;6.808;2023-03-14T01:25:09;98879.19;;;18.62;54.28
62617;BME280;62539;51.190;6.808;2023-03-14T01:27:37;98861.94;;;18.58;54.48
62617;BME280;62539;51.190;6.808;2023-03-14T01:30:03;98855.13;;;18.55;54.25
62617;BME280;62539;51.190;6.808;2023-03-14T01:32:30;98849.25;;;18.51;54.36
62617;BME280;62539;51.190;6.808;2023-03-14T01:34:56;98842.31;;;18.50;54.61
62617;BME280;62539;51.190;6.808;2023-03-14T01:37:21;98833.69;;;18.48;54.60
62617;BME280;62539;51.190;6.808;2023-03-14T01:39:47;98833.91;;;18.45;54.62
62617;BME280;62539;51.190;6.808;2023-03-14T01:42:13;98840.09;;;18.44;54.78
62617;BME280;62539;51.190;6.808;2023-03-14T01:47:16;98853.41;;;18.41;54.76
62617;BME280;62539;51.190;6.808;2023-03-14T01:49:41;98849.19;;;18.39;54.87
62617;BME280;62539;51.190;6.808;2023-03-14T01:52:16;98847.50;;;18.38;54.90
62617;BME280;62539;51.190;6.808;2023-03-14T01:54:46;98836.25;;;18.35;55.00
62617;BME280;62539;51.190;6.808;2023-03-14T02:00:07;98826.81;;;18.33;54.85
62617;BME280;62539;51.190;6.808;2023-03-14T02:02:37;98826.91;;;18.31;54.90
62617;BME280;62539;51.190;6.808;2023-03-14T02:05:05;98829.63;;;18.30;55.02
62617;BME280;62539;51.190;6.808;2023-03-14T02:07:39;98828.88;;;18.28;54.99
62617;BME280;62539;51.190;6.808;2023-03-14T02:10:11;98819.34;;;18.27;54.96
62617;BME280;62539;51.190;6.808;2023-03-14T02:12:37;98822.03;;;18.25;54.86
62617;BME280;62539;51.190;6.808;2023-03-14T02:15:04;98827.28;;;18.25;55.09
62617;BME280;62539;51.190;6.808;2023-03-14T02:17:30;98834.41;;;18.23;55.08
62617;BME280;62539;51.190;6.808;2023-03-14T02:20:27;98821.41;;;18.21;55.09
62617;BME280;62539;51.190;6.808;2023-03-14T02:22:58;98821.41;;;18.21;55.03
62617;BME280;62539;51.190;6.808;2023-03-14T02:28:36;98828.53;;;18.19;55.22
62617;BME280;62539;51.190;6.808;2023-03-14T02:31:02;98831.25;;;18.18;55.16
62617;BME280;62539;51.190;6.808;2023-03-14T02:33:28;98836.59;;;18.16;55.29
62617;BME280;62539;51.190;6.808;2023-03-14T02:35:57;98829.56;;;18.17;55.23
62617;BME280;62539;51.190;6.808;2023-03-14T02:38:35;98828.00;;;18.14;55.19
62617;BME280;62539;51.190;6.808;2023-03-14T02:41:07;98831.44;;;18.15;55.39
62617;BME280;62539;51.190;6.808;2023-03-14T02:43:33;98830.63;;;18.14;55.08
62617;BME280;62539;51.190;6.808;2023-03-14T02:46:00;98825.38;;;18.14;55.10
62617;BME280;62539;51.190;6.808;2023-03-14T02:48:36;98821.06;;;18.13;55.24
62617;BME280;62539;51.190;6.808;2023-03-14T02:51:07;98815.81;;;18.13;55.24
62617;BME280;62539;51.190;6.808;2023-03-14T02:53:35;98814.13;;;18.12;55.18
62617;BME280;62539;51.190;6.808;2023-03-14T02:56:03;98817.56;;;18.13;55.20
62617;BME280;62539;51.190;6.808;2023-03-14T02:58:29;98820.31;;;18.11;55.05
62617;BME280;62539;51.190;6.808;2023-03-14T03:00:55;98814.22;;;18.11;55.35
62617;BME280;62539;51.190;6.808;2023-03-14T03:03:21;98807.19;;;18.11;55.21
62617;BME280;62539;51.190;6.808;2023-03-14T03:05:51;98801.09;;;18.11;55.21
62617;BME280;62539;51.190;6.808;2023-03-14T03:08:19;98795.94;;;18.09;55.26
62617;BME280;62539;51.190;6.808;2023-03-14T03:10:46;98797.63;;;18.10;55.15
62617;BME280;62539;51.190;6.808;2023-03-14T03:13:12;98801.19;;;18.09;55.26
62617;BME280;62539;51.190;6.808;2023-03-14T03:15:37;98795.09;;;18.09;55.33
62617;BME280;62539;51.190;6.808;2023-03-14T03:18:03;98798.56;;;18.09;55.25
62617;BME280;62539;51.190;6.808;2023-03-14T03:20:28;98800.34;;;18.09;55.44
62617;BME280;62539;51.190;6.808;2023-03-14T03:22:54;98791.66;;;18.08;55.32
62617;BME280;62539;51.190;6.808;2023-03-14T03:25:19;98796.97;;;18.06;55.05
62617;BME280;62539;51.190;6.808;2023-03-14T03:27:45;98799.53;;;18.08;55.33
62617;BME280;62539;51.190;6.808;2023-03-14T03:30:11;98798.66;;;18.07;55.13
62617;BME280;62539;51.190;6.808;2023-03-14T03:32:37;98802.22;;;18.06;55.29
62617;BME280;62539;51.190;6.808;2023-03-14T03:35:03;98804.97;;;18.05;55.21
62617;BME280;62539;51.190;6.808;2023-03-14T03:37:31;98810.22;;;18.05;55.38
62617;BME280;62539;51.190;6.808;2023-03-14T03:39:57;98810.22;;;18.05;55.29
62617;BME280;62539;51.190;6.808;2023-03-14T03:42:22;98808.53;;;18.04;55.28
62617;BME280;62539;51.190;6.808;2023-03-14T03:44:48;98801.59;;;18.03;55.33
62617;BME280;62539;51.190;6.808;2023-03-14T03:47:14;98784.16;;;18.02;55.40
62617;BME280;62539;51.190;6.808;2023-03-14T03:49:40;98788.56;;;18.01;55.28
62617;BME280;62539;51.190;6.808;2023-03-14T03:52:05;98787.72;;;18.01;55.40
62617;BME280;62539;51.190;6.808;2023-03-14T03:54:31;98785.16;;;17.99;55.12
62617;BME280;62539;51.190;6.808;2023-03-14T03:56:56;98778.22;;;17.98;55.31
62617;BME280;62539;51.190;6.808;2023-03-14T03:59:22;98767.84;;;17.97;55.24
62617;BME280;62539;51.190;6.808;2023-03-14T04:01:47;98760.91;;;17.96;55.38
62617;BME280;62539;51.190;6.808;2023-03-14T04:04:13;98753.97;;;17.95;55.46
62617;BME280;62539;51.190;6.808;2023-03-14T04:06:39;98757.44;;;17.95;55.46
62617;BME280;62539;51.190;6.808;2023-03-14T04:09:05;98751.44;;;17.93;55.34
62617;BME280;62539;51.190;6.808;2023-03-14T04:11:30;98752.38;;;17.92;55.42
62617;BME280;62539;51.190;6.808;2023-03-14T04:13:56;98749.03;;;17.90;55.51
62617;BME280;62539;51.190;6.808;2023-03-14T04:16:23;98748.19;;;17.89;55.48
62617;BME280;62539;51.190;6.808;2023-03-14T04:18:50;98747.34;;;17.89;55.55
62617;BME280;62539;51.190;6.808;2023-03-14T04:21:16;98750.91;;;17.88;55.39
62617;BME280;62539;51.190;6.808;2023-03-14T04:23:42;98743.13;;;17.86;55.43
62617;BME280;62539;51.190;6.808;2023-03-14T04:26:08;98732.66;;;17.86;55.56
62617;BME280;62539;51.190;6.808;2023-03-14T04:28:33;98741.47;;;17.85;55.60
62617;BME280;62539;51.190;6.808;2023-03-14T04:31:09;98734.53;;;17.84;55.66
62617;BME280;62539;51.190;6.808;2023-03-14T04:33:36;98730.22;;;17.83;55.44
62617;BME280;62539;51.190;6.808;2023-03-14T04:36:03;98736.09;;;17.87;55.74
62617;BME280;62539;51.190;6.808;2023-03-14T04:38:29;98728.69;;;17.93;55.71
62617;BME280;62539;51.190;6.808;2023-03-14T04:40:54;98722.47;;;18.09;55.57
62617;BME280;62539;51.190;6.808;2023-03-14T04:43:20;98721.91;;;18.31;55.17
62617;BME280;62539;51.190;6.808;2023-03-14T04:45:45;98714.28;;;18.54;54.82
62617;BME280;62539;51.190;6.808;2023-03-14T04:48:11;98715.34;;;18.77;54.00
62617;BME280;62539;51.190;6.808;2023-03-14T04:50:37;98710.22;;;19.02;53.45
62617;BME280;62539;51.190;6.808;2023-03-14T04:53:02;98710.41;;;19.24;52.99
62617;BME280;62539;51.190;6.808;2023-03-14T04:55:28;98714.16;;;19.46;52.29
62617;BME280;62539;51.190;6.808;2023-03-14T04:57:53;98714.63;;;19.64;51.74
62617;BME280;62539;51.190;6.808;2023-03-14T05:00:19;98709.31;;;19.77;51.50
62617;BME280;62539;51.190;6.808;2023-03-14T05:02:44;98701.72;;;19.86;51.10
62617;BME280;62539;51.190;6.808;2023-03-14T05:05:10;98695.19;;;19.91;51.00
62617;BME280;62539;51.190;6.808;2023-03-14T05:07:36;98698.31;;;19.96;50.81
62617;BME280;62539;51.190;6.808;2023-03-14T05:10:01;98692.09;;;19.97;50.62
62617;BME280;62539;51.190;6.808;2023-03-14T05:12:27;98691.88;;;20.01;50.72
62617;BME280;62539;51.190;6.808;2023-03-14T05:14:53;98693.31;;;20.05;50.48
62617;BME280;62539;51.190;6.808;2023-03-14T05:17:18;98684.38;;;20.07;50.50
62617;BME280;62539;51.190;6.808;2023-03-14T05:19:44;98689.50;;;20.09;50.16
62617;BME280;62539;51.190;6.808;2023-03-14T05:22:10;98682.56;;;20.08;50.38
62617;BME280;62539;51.190;6.808;2023-03-14T05:24:36;98685.31;;;20.06;50.28
62617;BME280;62539;51.190;6.808;2023-03-14T05:27:02;98680.16;;;20.05;50.32
62617;BME280;62539;51.190;6.808;2023-03-14T05:29:28;98675.84;;;20.04;50.25
62617;BME280;62539;51.190;6.808;2023-03-14T05:31:53;98678.16;;;20.08;50.38
62617;BME280;62539;51.190;6.808;2023-03-14T05:34:18;98670.63;;;20.15;50.15
62617;BME280;62539;51.190;6.808;2023-03-14T05:36:44;98665.53;;;20.25;50.13
62617;BME280;62539;51.190;6.808;2023-03-14T05:39:09;98668.06;;;20.38;49.59
62617;BME280;62539;51.190;6.808;2023-03-14T05:41:34;98661.84;;;20.50;49.56
62617;BME280;62539;51.190;6.808;2023-03-14T05:44:00;98667.88;;;20.64;49.16
62617;BME280;62539;51.190;6.808;2023-03-14T05:46:26;98666.91;;;20.76;48.70
62617;BME280;62539;51.190;6.808;2023-03-14T05:48:51;98664.31;;;20.88;48.59
62617;BME280;62539;51.190;6.808;2023-03-14T05:51:17;98663.75;;;20.95;48.23
62617;BME280;62539;51.190;6.808;2023-03-14T05:53:42;98676.53;;;21.00;48.10
62617;BME280;62539;51.190;6.808;2023-03-14T05:56:08;98669.50;;;21.00;48.38
62617;BME280;62539;51.190;6.808;2023-03-14T05:58:34;98674.75;;;21.00;48.27
62617;BME280;62539;51.190;6.808;2023-03-14T06:01:04;98668.63;;;21.00;48.40
62617;BME280;62539;51.190;6.808;2023-03-14T06:03:30;98663.59;;;20.97;47.96
62617;BME280;62539;51.190;6.808;2023-03-14T06:05:56;98666.47;;;20.94;48.31
62617;BME280;62539;51.190;6.808;2023-03-14T06:08:22;98667.09;;;20.86;48.06
62617;BME280;62539;51.190;6.808;2023-03-14T06:10:47;98662.41;;;20.78;47.90
62617;BME280;62539;51.190;6.808;2023-03-14T06:13:13;98654.94;;;20.72;48.07
62617;BME280;62539;51.190;6.808;2023-03-14T06:15:40;98660.44;;;20.69;48.37
62617;BME280;62539;51.190;6.808;2023-03-14T06:18:06;98656.84;;;20.70;48.26
62617;BME280;62539;51.190;6.808;2023-03-14T06:20:31;98657.25;;;20.77;48.65
62617;BME280;62539;51.190;6.808;2023-03-14T06:22:58;98654.03;;;20.84;48.21
62617;BME280;62539;51.190;6.808;2023-03-14T06:25:23;98664.47;;;20.97;48.43
62617;BME280;62539;51.190;6.808;2023-03-14T06:27:49;98666.25;;;21.08;48.00
62617;BME280;62539;51.190;6.808;2023-03-14T06:30:15;98665.28;;;21.21;47.75
62617;BME280;62539;51.190;6.808;2023-03-14T06:32:41;98667.91;;;21.32;47.79
62617;BME280;62539;51.190;6.808;2023-03-14T06:35:09;98672.53;;;21.40;47.31
62617;BME280;62539;51.190;6.808;2023-03-14T06:37:35;98670.38;;;21.45;46.91
62617;BME280;62539;51.190;6.808;2023-03-14T06:40:00;98670.28;;;21.47;47.17
62617;BME280;62539;51.190;6.808;2023-03-14T06:42:26;98674.59;;;21.48;46.94
62617;BME280;62539;51.190;6.808;2023-03-14T06:44:51;98679.97;;;21.46;46.84
62617;BME280;62539;51.190;6.808;2023-03-14T06:47:17;98674.44;;;21.49;47.28
62617;BME280;62539;51.190;6.808;2023-03-14T06:49:42;98679.47;;;21.52;47.23
62617;BME280;62539;51.190;6.808;2023-03-14T06:52:08;98684.63;;;21.54;47.28
62617;BME280;62539;51.190;6.808;2023-03-14T06:54:33;98687.28;;;21.54;47.23
62617;BME280;62539;51.190;6.808;2023-03-14T06:56:58;98677.94;;;21.50;47.44
62617;BME280;62539;51.190;6.808;2023-03-14T06:59:24;98676.50;;;21.46;47.43
62617;BME280;62539;51.190;6.808;2023-03-14T07:01:49;98683.94;;;21.40;47.70
62617;BME280;62539;51.190;6.808;2023-03-14T07:04:16;98676.03;;;21.40;47.76
62617;BME280;62539;51.190;6.808;2023-03-14T07:06:42;98682.75;;;21.44;47.71
62617;BME280;62539;51.190;6.808;2023-03-14T07:09:10;98689.44;;;21.49;47.56
62617;BME280;62539;51.190;6.808;2023-03-14T07:11:37;98677.56;;;21.54;47.24
62617;BME280;62539;51.190;6.808;2023-03-14T07:14:02;98690.25;;;21.61;47.17
62617;BME280;62539;51.190;6.808;2023-03-14T07:16:28;98690.50;;;21.69;47.27
62617;BME280;62539;51.190;6.808;2023-03-14T07:18:56;98698.63;;;21.77;46.87
62617;BME280;62539;51.190;6.808;2023-03-14T07:21:22;98690.94;;;21.85;46.66
62617;BME280;62539;51.190;6.808;2023-03-14T07:23:48;98698.25;;;21.93;46.32
62617;BME280;62539;51.190;6.808;2023-03-14T07:26:13;98698.69;;;21.98;46.41
62617;BME280;62539;51.190;6.808;2023-03-14T07:28:39;98701.19;;;22.00;46.24
62617;BME280;62539;51.190;6.808;2023-03-14T07:31:04;98697.75;;;21.99;45.90
62617;BME280;62539;51.190;6.808;2023-03-14T07:33:30;98700.38;;;21.99;46.34
62617;BME280;62539;51.190;6.808;2023-03-14T07:35:56;98708.56;;;21.96;46.31
62617;BME280;62539;51.190;6.808;2023-03-14T07:38:21;98706.88;;;21.95;45.91
62617;BME280;62539;51.190;6.808;2023-03-14T07:40:47;98708.56;;;21.96;46.26
62617;BME280;62539;51.190;6.808;2023-03-14T07:43:12;98710.94;;;21.99;46.14
62617;BME280;62539;51.190;6.808;2023-03-14T07:45:37;98720.28;;;22.03;46.19
62617;BME280;62539;51.190;6.808;2023-03-14T07:48:03;98719.78;;;22.10;45.90
62617;BME280;62539;51.190;6.808;2023-03-14T07:50:28;98712.31;;;22.15;45.95
62617;BME280;62539;51.190;6.808;2023-03-14T07:52:54;98727.06;;;22.17;45.88
62617;BME280;62539;51.190;6.808;2023-03-14T07:55:20;98731.25;;;22.20;45.65
62617;BME280;62539;51.190;6.808;2023-03-14T07:57:46;98725.72;;;22.23;45.44
62617;BME280;62539;51.190;6.808;2023-03-14T08:00:12;98730.16;;;22.23;45.36
62617;BME280;62539;51.190;6.808;2023-03-14T08:02:39;98730.16;;;22.23;45.44
62617;BME280;62539;51.190;6.808;2023-03-14T08:05:06;98728.47;;;22.22;45.54
62617;BME280;62539;51.190;6.808;2023-03-14T08:07:31;98726.69;;;22.22;45.41
62617;BME280;62539;51.190;6.808;2023-03-14T08:09:57;98728.72;;;22.18;45.77
62617;BME280;62539;51.190;6.808;2023-03-14T08:12:22;98725.78;;;22.12;45.56
62617;BME280;62539;51.190;6.808;2023-03-14T08:14:48;98731.41;;;22.07;45.36
62617;BME280;62539;51.190;6.808;2023-03-14T08:17:13;98723.88;;;22.02;46.03
62617;BME280;62539;51.190;6.808;2023-03-14T08:19:41;98733.28;;;21.95;45.94
62617;BME280;62539;51.190;6.808;2023-03-14T08:22:07;98734.47;;;21.91;46.07
62617;BME280;62539;51.190;6.808;2023-03-14T08:24:32;98730.41;;;21.87;46.22
62617;BME280;62539;51.190;6.808;2023-03-14T08:26:58;98737.00;;;21.81;46.45
62617;BME280;62539;51.190;6.808;2023-03-14T08:29:24;98734.63;;;21.78;46.60
62617;BME280;62539;51.190;6.808;2023-03-14T08:31:49;98738.94;;;21.79;46.46
62617;BME280;62539;51.190;6.808;2023-03-14T08:34:15;98743.16;;;21.82;46.38
62617;BME280;62539;51.190;6.808;2023-03-14T08:36:41;98738.44;;;21.85;46.58
62617;BME280;62539;51.190;6.808;2023-03-14T08:39:06;98738.09;;;21.90;46.24
62617;BME280;62539;51.190;6.808;2023-03-14T08:41:33;98740.94;;;21.98;45.92
62617;BME280;62539;51.190;6.808;2023-03-14T08:44:05;98733.22;;;22.07;45.90
62617;BME280;62539;51.190;6.808;2023-03-14T08:46:31;98744.00;;;22.15;45.78
62617;BME280;62539;51.190;6.808;2023-03-14T08:48:56;98747.56;;;22.25;45.75
62617;BME280;62539;51.190;6.808;2023-03-14T08:51:22;98755.00;;;22.31;45.18
62617;BME280;62539;51.190;6.808;2023-03-14T08:53:47;98755.69;;;22.34;45.25
62617;BME280;62539;51.190;6.808;2023-03-14T08:56:12;98758.19;;;22.35;45.38
62617;BME280;62539;51.190;6.808;2023-03-14T08:58:38;98765.31;;;22.35;45.26
62617;BME280;62539;51.190;6.808;2023-03-14T09:01:05;98768.19;;;22.31;45.21
62617;BME280;62539;51.190;6.808;2023-03-14T09:03:31;98771.09;;;22.28;45.35
62617;BME280;62539;51.190;6.808;2023-03-14T09:06:01;98786.47;;;22.23;45.22
62617;BME280;62539;51.190;6.808;2023-03-14T09:08:31;98788.66;;;22.18;45.30
62617;BME280;62539;51.190;6.808;2023-03-14T09:10:56;98790.13;;;22.11;45.61
62617;BME280;62539;51.190;6.808;2023-03-14T09:13:22;98794.06;;;22.05;45.70
62617;BME280;62539;51.190;6.808;2023-03-14T09:15:55;98813.19;;;21.97;45.63
62617;BME280;62539;51.190;6.808;2023-03-14T09:18:22;98807.53;;;21.91;45.71
62617;BME280;62539;51.190;6.808;2023-03-14T09:20:48;98805.03;;;21.89;45.92
62617;BME280;62539;51.190;6.808;2023-03-14T09:23:14;98845.47;;;21.90;46.14
62617;BME280;62539;51.190;6.808;2023-03-14T09:25:40;98854.94;;;21.92;46.11
62617;BME280;62539;51.190;6.808;2023-03-14T09:28:05;98876.41;;;21.99;46.14
62617;BME280;62539;51.190;6.808;2023-03-14T09:30:31;98885.53;;;22.06;45.83
62617;BME280;62539;51.190;6.808;2023-03-14T09:32:56;98902.44;;;22.15;45.45
62617;BME280;62539;51.190;6.808;2023-03-14T09:35:23;98920.31;;;22.23;45.26
62617;BME280;62539;51.190;6.808;2023-03-14T09:37:48;98934.00;;;22.28;45.07
62617;BME280;62539;51.190;6.808;2023-03-14T09:40:16;98949.03;;;22.27;44.87
62617;BME280;62539;51.190;6.808;2023-03-14T09:42:43;98959.59;;;22.27;44.83
62617;BME280;62539;51.190;6.808;2023-03-14T09:45:17;98972.91;;;22.26;45.11
62617;BME280;62539;51.190;6.808;2023-03-14T09:47:50;98976.38;;;22.26;44.87
62617;BME280;62539;51.190;6.808;2023-03-14T09:50:16;98989.22;;;22.31;44.85
62617;BME280;62539;51.190;6.808;2023-03-14T09:52:45;98995.84;;;22.37;44.75
62617;BME280;62539;51.190;6.808;2023-03-14T09:55:22;99004.75;;;22.47;44.49
62617;BME280;62539;51.190;6.808;2023-03-14T09:57:56;99021.81;;;22.54;44.41
62617;BME280;62539;51.190;6.808;2023-03-14T10:00:29;99027.44;;;22.61;44.26
62617;BME280;62539;51.190;6.808;2023-03-14T10:03:00;99033.44;;;22.63;44.30
62617;BME280;62539;51.190;6.808;2023-03-14T10:05:45;99045.09;;;22.60;44.29
62617;BME280;62539;51.190;6.808;2023-03-14T10:08:11;99046.31;;;22.56;43.97
62617;BME280;62539;51.190;6.808;2023-03-14T10:10:38;99055.44;;;22.52;44.06
62617;BME280;62539;51.190;6.808;2023-03-14T10:15:35;99087.09;;;22.41;44.29
62617;BME280;62539;51.190;6.808;2023-03-14T10:18:09;99090.31;;;22.33;44.60
62617;BME280;62539;51.190;6.808;2023-03-14T10:20:43;99100.78;;;22.23;44.90
62617;BME280;62539;51.190;6.808;2023-03-14T10:25:46;99121.75;;;22.13;45.03
62617;BME280;62539;51.190;6.808;2023-03-14T10:28:29;99125.75;;;22.19;45.05
62617;BME280;62539;51.190;6.808;2023-03-14T10:30:58;99141.34;;;22.22;44.95
62617;BME280;62539;51.190;6.808;2023-03-14T10:33:25;99153.13;;;22.29;45.08
62617;BME280;62539;51.190;6.808;2023-03-14T10:39:27;99180.09;;;22.46;44.62
62617;BME280;62539;51.190;6.808;2023-03-14T10:42:11;99177.94;;;22.51;44.06
62617;BME280;62539;51.190;6.808;2023-03-14T10:44:38;99192.72;;;22.54;44.22
62617;BME280;62539;51.190;6.808;2023-03-14T10:47:04;99197.75;;;22.57;44.45
62617;BME280;62539;51.190;6.808;2023-03-14T10:49:33;99211.69;;;22.59;44.15
62617;BME280;62539;51.190;6.808;2023-03-14T10:52:22;99219.75;;;22.57;43.96
62617;BME280;62539;51.190;6.808;2023-03-14T10:55:11;99224.88;;;22.48;43.96
62617;BME280;62539;51.190;6.808;2023-03-14T10:57:41;99238.66;;;22.40;44.07
62617;BME280;62539;51.190;6.808;2023-03-14T11:00:20;99251.59;;;22.31;44.45
62617;BME280;62539;51.190;6.808;2023-03-14T11:05:56;99275.78;;;22.14;45.81
62617;BME280;62539;51.190;6.808;2023-03-14T11:08:30;99285.63;;;22.12;46.18
62617;BME280;62539;51.190;6.808;2023-03-14T11:11:27;99308.19;;;22.16;46.46
62617;BME280;62539;51.190;6.808;2023-03-14T11:13:59;99319.03;;;22.24;46.19
62617;BME280;62539;51.190;6.808;2023-03-14T11:16:43;99326.31;;;22.34;46.12
62617;BME280;62539;51.190;6.808;2023-03-14T11:19:41;99332.59;;;22.44;46.28
62617;BME280;62539;51.190;6.808;2023-03-14T11:22:43;99333.50;;;22.56;45.92
62617;BME280;62539;51.190;6.808;2023-03-14T11:25:33;99344.00;;;22.69;45.99
62617;BME280;62539;51.190;6.808;2023-03-14T11:28:40;99354.13;;;22.75;45.92
62617;BME280;62539;51.190;6.808;2023-03-14T11:31:41;99364.72;;;22.75;45.76
62617;BME280;62539;51.190;6.808;2023-03-14T11:36:46;99398.78;;;22.67;45.77
62617;BME280;62539;51.190;6.808;2023-03-14T11:39:41;99393.09;;;22.60;45.63
62617;BME280;62539;51.190;6.808;2023-03-14T11:42:15;99411.31;;;22.52;45.69
62617;BME280;62539;51.190;6.808;2023-03-14T11:44:45;99417.91;;;22.46;45.55
62617;BME280;62539;51.190;6.808;2023-03-14T11:47:19;99427.19;;;22.39;45.92
62617;BME280;62539;51.190;6.808;2023-03-14T11:50:01;99424.88;;;22.34;46.05
62617;BME280;62539;51.190;6.808;2023-03-14T11:52:50;99436.31;;;22.35;45.69
62617;BME280;62539;51.190;6.808;2023-03-14T11:55:27;99449.16;;;22.39;45.17
62617;BME280;62539;51.190;6.808;2023-03-14T11:58:23;99448.31;;;22.52;45.07
62617;BME280;62539;51.190;6.808;2023-03-14T12:00:51;99457.78;;;22.67;44.94
62617;BME280;62539;51.190;6.808;2023-03-14T12:03:29;99476.47;;;22.77;45.07
62617;BME280;62539;51.190;6.808;2023-03-14T12:08:38;99491.75;;;22.85;44.70
62617;BME280;62539;51.190;6.808;2023-03-14T12:11:19;99498.13;;;22.82;44.61
62617;BME280;62539;51.190;6.808;2023-03-14T12:13:58;99509.59;;;22.70;44.73
62617;BME280;62539;51.190;6.808;2023-03-14T12:16:40;99529.50;;;22.50;45.22
62617;BME280;62539;51.190;6.808;2023-03-14T12:19:26;99529.94;;;22.30;45.82
62617;BME280;62539;51.190;6.808;2023-03-14T12:22:07;99537.03;;;22.17;45.69
62617;BME280;62539;51.190;6.808;2023-03-14T12:24:49;99543.47;;;22.13;46.25
62617;BME280;62539;51.190;6.808;2023-03-14T12:30:27;99568.81;;;22.15;46.21
62617;BME280;62539;51.190;6.808;2023-03-14T12:38:13;99598.84;;;22.27;46.36
62617;BME280;62539;51.190;6.808;2023-03-14T12:41:04;99594.31;;;22.29;46.33
62617;BME280;62539;51.190;6.808;2023-03-14T12:43:39;99600.09;;;22.35;46.02
62617;BME280;62539;51.190;6.808;2023-03-14T12:48:44;99624.22;;;22.43;46.18
62617;BME280;62539;51.190;6.808;2023-03-14T12:51:29;99632.13;;;22.43;46.04
62617;BME280;62539;51.190;6.808;2023-03-14T12:54:39;99636.91;;;22.51;45.78
62617;BME280;62539;51.190;6.808;2023-03-14T12:57:36;99644.31;;;22.58;45.47
62617;BME280;62539;51.190;6.808;2023-03-14T13:00:23;99656.38;;;22.63;45.58
62617;BME280;62539;51.190;6.808;2023-03-14T13:03:02;99677.50;;;22.63;45.43
62617;BME280;62539;51.190;6.808;2023-03-14T13:05:57;99692.09;;;22.55;45.66
62617;BME280;62539;51.190;6.808;2023-03-14T13:08:42;99709.94;;;22.52;45.61
62617;BME280;62539;51.190;6.808;2023-03-14T13:11:27;99719.16;;;22.46;46.03
62617;BME280;62539;51.190;6.808;2023-03-14T13:13:57;99721.88;;;22.44;46.34
62617;BME280;62539;51.190;6.808;2023-03-14T13:16:24;99738.59;;;22.45;45.90
62617;BME280;62539;51.190;6.808;2023-03-14T13:18:59;99740.28;;;22.46;45.79
62617;BME280;62539;51.190;6.808;2023-03-14T13:21:35;99742.81;;;22.48;45.66
62617;BME280;62539;51.190;6.808;2023-03-14T13:24:05;99760.38;;;22.49;45.73
62617;BME280;62539;51.190;6.808;2023-03-14T13:26:43;99762.81;;;22.52;45.76
62617;BME280;62539;51.190;6.808;2023-03-14T13:29:24;99767.16;;;22.53;46.13
62617;BME280;62539;51.190;6.808;2023-03-14T13:31:53;99774.66;;;22.59;46.16
62617;BME280;62539;51.190;6.808;2023-03-14T13:34:31;99774.81;;;22.83;46.07
62617;BME280;62539;51.190;6.808;2023-03-14T13:36:59;99770.97;;;23.00;45.79
62617;BME280;62539;51.190;6.808;2023-03-14T13:39:26;99777.75;;;23.17;45.54
62617;BME280;62539;51.190;6.808;2023-03-14T13:41:58;99786.94;;;23.51;44.97
62617;BME280;62539;51.190;6.808;2023-03-14T13:44:29;99788.38;;;23.92;44.21
62617;BME280;62539;51.190;6.808;2023-03-14T13:46:58;99796.53;;;24.26;43.77
62617;BME280;62539;51.190;6.808;2023-03-14T13:49:27;99800.63;;;24.30;43.08